createdAt,value
2024-01-31T00:02:10.808Z,94.07
2024-01-31T00:04:38.969Z,94.08
2024-01-31T00:07:06.046Z,94.35
2024-01-31T00:09:33.397Z,93.72
2024-01-31T00:12:00.366Z,93.26
2024-01-31T00:14:27.342Z,93.84
2024-01-31T00:16:54.838Z,94.49
2024-01-31T00:19:22.031Z,94.63
2024-01-31T00:21:49.098Z,94.16
2024-01-31T00:24:16.017Z,93.83
2024-01-31T00:26:42.917Z,93.84
2024-01-31T00:29:10.379Z,93.84
2024-01-31T00:31:37.436Z,94.24
2024-01-31T00:34:04.493Z,94.78
2024-01-31T00:36:31.424Z,94.83
2024-01-31T00:39:00.667Z,94.40
2024-01-31T00:41:28.361Z,95.15
2024-01-31T00:43:55.252Z,93.82
2024-01-31T00:46:22.733Z,94.13
2024-01-31T00:48:49.868Z,93.93
2024-01-31T00:51:16.799Z,94.21
2024-01-31T00:53:44.175Z,93.71
2024-01-31T00:56:11.179Z,93.22
2024-01-31T00:58:39.652Z,93.27
2024-01-31T01:01:06.885Z,93.54
2024-01-31T01:03:33.968Z,93.45
2024-01-31T01:06:01.790Z,93.35
2024-01-31T01:08:28.769Z,93.79
2024-01-31T01:10:56.924Z,93.48
2024-01-31T01:13:24.087Z,94.31
2024-01-31T01:15:51.033Z,94.21
2024-01-31T01:18:19.256Z,94.42
2024-01-31T01:20:46.943Z,93.89
2024-01-31T01:23:16.296Z,94.41
2024-01-31T01:25:43.785Z,94.12
2024-01-31T01:28:11.152Z,94.75
2024-01-31T01:30:38.432Z,94.33
2024-01-31T01:33:05.668Z,94.46
2024-01-31T01:35:32.591Z,94.51
2024-01-31T01:37:59.584Z,94.37
2024-01-31T01:40:26.526Z,94.85
2024-01-31T01:42:54.962Z,95.24
2024-01-31T01:45:22.008Z,94.64
2024-01-31T01:47:52.203Z,94.38
2024-01-31T01:50:20.602Z,95.01
2024-01-31T01:52:48.594Z,95.22
2024-01-31T01:55:15.849Z,95.56
2024-01-31T01:57:43.986Z,95.17
2024-01-31T02:00:11.773Z,95.87
2024-01-31T02:02:39.373Z,95.67
2024-01-31T02:05:09.174Z,95.90
2024-01-31T02:07:37.505Z,95.61
2024-01-31T02:10:05.743Z,95.26
2024-01-31T02:12:33.312Z,95.04
2024-01-31T02:15:00.834Z,94.71
2024-01-31T02:17:30.635Z,94.83
2024-01-31T02:19:57.815Z,94.84
2024-01-31T02:22:24.788Z,94.64
2024-01-31T02:24:51.806Z,95.16
2024-01-31T02:27:18.867Z,94.66
2024-01-31T02:29:45.927Z,94.63
2024-01-31T02:32:13.669Z,94.59
2024-01-31T02:34:40.858Z,94.70
2024-01-31T02:37:07.973Z,93.86
2024-01-31T02:39:35.120Z,94.80
2024-01-31T02:42:02.117Z,94.44
2024-01-31T02:44:29.744Z,94.73
2024-01-31T02:46:56.759Z,94.79
2024-01-31T02:49:23.845Z,94.63
2024-01-31T02:51:51.037Z,94.49
2024-01-31T02:54:17.932Z,94.48
2024-01-31T02:56:45.207Z,94.84
2024-01-31T02:59:12.103Z,94.92
2024-01-31T03:01:46.092Z,94.92
2024-01-31T03:04:16.181Z,94.96
2024-01-31T03:06:43.307Z,94.87
2024-01-31T03:09:19.092Z,95.00
2024-01-31T03:11:50.391Z,95.01
2024-01-31T03:14:17.392Z,94.90
2024-01-31T03:16:45.562Z,95.41
2024-01-31T03:19:14.876Z,95.35
2024-01-31T03:21:43.902Z,95.63
2024-01-31T03:24:19.077Z,95.17
2024-01-31T03:26:52.565Z,95.53
2024-01-31T03:29:27.099Z,95.43
2024-01-31T03:31:58.270Z,95.04
2024-01-31T03:34:29.005Z,95.01
2024-01-31T03:36:56.621Z,94.52
2024-01-31T03:39:28.376Z,94.70
2024-01-31T03:42:04.534Z,94.89
2024-01-31T03:44:35.013Z,94.34
2024-01-31T03:47:02.273Z,94.69
2024-01-31T03:49:32.185Z,94.96
2024-01-31T03:52:07.116Z,95.10
2024-01-31T03:54:36.571Z,95.23
2024-01-31T03:57:04.088Z,95.53
2024-01-31T03:59:32.047Z,95.20
2024-01-31T04:02:00.719Z,95.18
2024-01-31T04:04:28.818Z,95.40
2024-01-31T04:06:57.350Z,95.55
2024-01-31T04:09:27.355Z,95.45
2024-01-31T04:11:57.315Z,95.17
2024-01-31T04:14:26.214Z,94.97
2024-01-31T04:16:53.174Z,94.92
2024-01-31T04:19:20.224Z,95.14
2024-01-31T04:21:52.538Z,94.80
2024-01-31T04:24:19.929Z,94.91
2024-01-31T04:26:47.325Z,95.07
2024-01-31T04:29:15.585Z,95.00
2024-01-31T04:31:42.733Z,95.36
2024-01-31T04:34:14.066Z,95.39
2024-01-31T04:36:43.528Z,95.67
2024-01-31T04:39:10.895Z,95.29
2024-01-31T04:41:38.904Z,95.33
2024-01-31T04:44:09.723Z,94.93
2024-01-31T04:46:39.483Z,95.44
2024-01-31T04:49:07.500Z,95.46
2024-01-31T04:51:34.822Z,94.97
2024-01-31T04:54:05.397Z,95.02
2024-01-31T04:56:39.000Z,95.23
2024-01-31T04:59:08.761Z,95.01
2024-01-31T05:01:39.008Z,94.35
2024-01-31T05:04:09.193Z,94.55
2024-01-31T05:06:38.400Z,94.06
2024-01-31T05:09:08.319Z,94.43
2024-01-31T05:11:39.197Z,93.96
2024-01-31T05:14:13.472Z,93.91
2024-01-31T05:16:44.212Z,93.83
2024-01-31T05:19:13.639Z,94.07
2024-01-31T05:22:00.558Z,94.53
2024-01-31T05:24:30.288Z,94.27
2024-01-31T05:27:04.740Z,93.88
2024-01-31T05:29:33.115Z,93.33
2024-01-31T05:32:02.361Z,93.56
2024-01-31T05:34:31.428Z,93.64
2024-01-31T05:37:03.219Z,93.38
2024-01-31T05:39:37.548Z,92.72
2024-01-31T05:42:05.942Z,91.74
2024-01-31T05:44:37.331Z,92.49
2024-01-31T05:47:06.338Z,92.75
2024-01-31T05:49:40.069Z,92.28
2024-01-31T05:52:08.435Z,92.68
2024-01-31T05:54:36.699Z,93.22
2024-01-31T05:57:04.942Z,93.53
2024-01-31T05:59:34.449Z,93.37
2024-01-31T06:02:02.669Z,93.57
2024-01-31T06:04:29.809Z,93.38
2024-01-31T06:06:58.027Z,93.36
2024-01-31T06:09:28.357Z,93.57
2024-01-31T06:11:56.763Z,93.70
2024-01-31T06:14:26.257Z,94.07
2024-01-31T06:16:53.415Z,94.11
2024-01-31T06:19:22.391Z,93.79
2024-01-31T06:21:56.020Z,93.42
2024-01-31T06:24:23.110Z,93.93
2024-01-31T06:26:51.570Z,93.65
2024-01-31T06:29:19.870Z,93.74
2024-01-31T06:31:49.010Z,94.01
2024-01-31T06:34:16.778Z,93.96
2024-01-31T06:36:57.603Z,94.06
2024-01-31T06:39:28.527Z,93.96
2024-01-31T06:41:55.992Z,93.74
2024-01-31T06:44:24.610Z,93.58
2024-01-31T06:46:54.933Z,93.57
2024-01-31T06:49:23.618Z,93.36
2024-01-31T06:51:51.197Z,92.47
2024-01-31T06:54:22.912Z,92.67
2024-01-31T06:56:53.719Z,92.17
2024-01-31T06:59:20.804Z,92.21
2024-01-31T07:01:49.121Z,92.17
2024-01-31T07:04:19.559Z,91.74
2024-01-31T07:06:50.616Z,92.34
2024-01-31T07:09:18.281Z,92.38
2024-01-31T07:11:45.673Z,91.47
2024-01-31T07:14:13.832Z,91.42
2024-01-31T07:16:41.866Z,91.70
2024-01-31T07:19:08.969Z,92.06
2024-01-31T07:21:38.978Z,92.24
2024-01-31T07:24:15.845Z,92.12
2024-01-31T07:27:09.001Z,92.07
2024-01-31T07:29:39.111Z,91.93
2024-01-31T07:32:10.489Z,91.78
2024-01-31T07:34:38.957Z,91.87
2024-01-31T07:37:08.309Z,91.70
2024-01-31T07:39:35.958Z,91.49
2024-01-31T07:42:04.426Z,91.99
2024-01-31T07:44:34.853Z,92.19
2024-01-31T07:47:04.602Z,91.88
2024-01-31T07:49:33.421Z,91.41
2024-01-31T07:52:00.873Z,90.99
2024-01-31T07:54:28.203Z,91.05
2024-01-31T07:56:55.223Z,91.23
2024-01-31T07:59:23.861Z,90.50
2024-01-31T08:01:51.351Z,90.55
2024-01-31T08:04:20.662Z,89.33
2024-01-31T08:06:48.604Z,89.87
2024-01-31T08:09:22.520Z,88.44
2024-01-31T08:11:55.151Z,88.36
2024-01-31T08:14:22.148Z,86.62
2024-01-31T08:16:51.553Z,88.78
2024-01-31T08:19:20.141Z,87.95
2024-01-31T08:21:47.258Z,87.25
2024-01-31T08:24:14.337Z,86.54
2024-01-31T08:26:41.256Z,85.93
2024-01-31T08:29:15.711Z,85.31
2024-01-31T08:31:49.968Z,86.29
2024-01-31T08:34:18.716Z,86.14
2024-01-31T08:36:45.931Z,86.51
2024-01-31T08:39:13.686Z,85.56
2024-01-31T08:41:40.902Z,85.60
2024-01-31T08:44:10.557Z,84.77
2024-01-31T08:46:48.040Z,85.88
2024-01-31T08:49:27.928Z,85.63
2024-01-31T08:51:56.152Z,84.91
2024-01-31T08:54:23.167Z,86.04
2024-01-31T08:56:51.257Z,85.81
2024-01-31T08:59:19.025Z,85.16
2024-01-31T09:01:49.889Z,84.80
2024-01-31T09:04:19.489Z,84.44
2024-01-31T09:06:48.290Z,83.20
2024-01-31T09:09:15.443Z,82.58
2024-01-31T09:11:42.661Z,81.75
2024-01-31T09:14:10.160Z,82.18
2024-01-31T09:16:37.184Z,82.49
2024-01-31T09:19:05.220Z,82.77
2024-01-31T09:21:35.289Z,82.30
2024-01-31T09:24:03.687Z,81.31
2024-01-31T09:26:33.200Z,81.21
2024-01-31T09:29:00.651Z,81.60
2024-01-31T09:31:28.848Z,81.46
2024-01-31T09:33:57.017Z,80.26
2024-01-31T09:36:26.551Z,80.39
2024-01-31T09:38:53.602Z,79.62
2024-01-31T09:41:22.329Z,79.37
2024-01-31T09:43:49.352Z,78.84
2024-01-31T09:46:16.850Z,79.03
2024-01-31T09:48:44.738Z,78.70
2024-01-31T09:51:15.012Z,78.60
2024-01-31T09:53:46.299Z,78.58
2024-01-31T09:56:13.309Z,78.19
2024-01-31T09:58:40.659Z,77.82
2024-01-31T10:01:17.231Z,77.03
2024-01-31T10:03:49.132Z,76.13
2024-01-31T10:06:16.201Z,77.01
2024-01-31T10:08:43.373Z,76.12
2024-01-31T10:11:10.264Z,74.04
2024-01-31T10:13:37.500Z,74.68
2024-01-31T10:16:05.579Z,75.38
2024-01-31T10:18:33.250Z,75.94
2024-01-31T10:21:00.331Z,74.47
2024-01-31T10:23:28.848Z,74.85
2024-01-31T10:25:56.377Z,74.35
2024-01-31T10:28:23.940Z,75.24
2024-01-31T10:30:51.478Z,74.30
2024-01-31T10:33:22.461Z,72.34
2024-01-31T10:36:25.061Z,74.24
2024-01-31T10:38:37.268Z,73.54
2024-01-31T10:41:07.700Z,73.94
2024-01-31T10:43:38.065Z,73.06
2024-01-31T10:46:05.115Z,72.65
2024-01-31T10:48:32.260Z,72.40
2024-01-31T10:51:04.398Z,71.87
2024-01-31T10:53:33.071Z,70.10
2024-01-31T10:56:01.522Z,70.62
2024-01-31T10:58:30.519Z,70.51
2024-01-31T11:00:57.645Z,70.79
2024-01-31T11:03:24.917Z,71.70
2024-01-31T11:05:54.315Z,72.03
2024-01-31T11:08:23.531Z,72.67
2024-01-31T11:10:53.553Z,71.76
2024-01-31T11:13:22.043Z,70.69
2024-01-31T11:15:48.989Z,71.49
2024-01-31T11:18:17.331Z,71.35
2024-01-31T11:20:51.378Z,72.43
2024-01-31T11:23:20.618Z,71.49
2024-01-31T11:25:47.767Z,70.58
2024-01-31T11:28:17.240Z,69.53
2024-01-31T11:30:45.151Z,68.62
2024-01-31T11:33:12.834Z,69.25
2024-01-31T11:35:39.915Z,69.33
2024-01-31T11:38:09.836Z,69.58
2024-01-31T11:40:36.980Z,69.88
2024-01-31T11:43:05.816Z,70.50
2024-01-31T11:45:33.248Z,70.11
2024-01-31T11:48:00.545Z,69.82
2024-01-31T11:50:28.628Z,69.12
2024-01-31T11:52:56.858Z,69.06
2024-01-31T11:55:29.902Z,69.58
2024-01-31T11:57:57.395Z,70.12
2024-01-31T12:00:25.840Z,68.91
2024-01-31T12:02:56.057Z,68.43
2024-01-31T12:05:23.896Z,68.30
2024-01-31T12:07:58.546Z,69.37
2024-01-31T12:10:29.620Z,69.06
2024-01-31T12:13:00.723Z,67.96
2024-01-31T12:15:28.539Z,69.05
2024-01-31T12:17:56.048Z,70.15
2024-01-31T12:20:23.752Z,70.00
2024-01-31T12:22:51.017Z,67.92
2024-01-31T12:25:18.017Z,67.66
2024-01-31T12:27:45.222Z,67.83
2024-01-31T12:30:12.903Z,67.96
2024-01-31T12:32:40.035Z,67.04
2024-01-31T12:35:07.525Z,68.71
2024-01-31T12:37:36.171Z,67.78
2024-01-31T12:40:04.117Z,67.90
2024-01-31T12:42:31.720Z,66.80
2024-01-31T12:44:59.371Z,69.29
2024-01-31T12:47:28.612Z,66.96
2024-01-31T12:49:55.716Z,66.54
2024-01-31T12:52:26.181Z,66.92
2024-01-31T12:54:54.063Z,67.61
2024-01-31T12:57:21.985Z,68.28
2024-01-31T12:59:49.238Z,69.01
2024-01-31T13:02:16.382Z,69.59
2024-01-31T13:04:43.540Z,69.76
2024-01-31T13:07:11.452Z,69.67
2024-01-31T13:09:38.837Z,69.62
2024-01-31T13:12:09.866Z,69.19
2024-01-31T13:14:39.358Z,68.83
2024-01-31T13:17:06.602Z,69.72
2024-01-31T13:19:33.701Z,69.41
2024-01-31T13:22:03.568Z,71.32
2024-01-31T13:24:32.527Z,71.47
2024-01-31T13:26:59.610Z,71.22
2024-01-31T13:29:26.949Z,71.07
2024-01-31T13:31:54.064Z,71.15
2024-01-31T13:34:21.733Z,69.62
2024-01-31T13:36:49.071Z,71.14
2024-01-31T13:39:16.367Z,70.51
2024-01-31T13:41:43.517Z,70.81
2024-01-31T13:44:10.517Z,70.58
2024-01-31T13:46:41.198Z,72.53
2024-01-31T13:49:08.638Z,70.20
2024-01-31T13:51:36.985Z,69.54
2024-01-31T13:54:05.013Z,70.33
2024-01-31T13:56:32.153Z,70.85
2024-01-31T13:58:59.118Z,70.01
2024-01-31T14:01:27.018Z,70.81
2024-01-31T14:03:54.066Z,71.92
2024-01-31T14:06:21.292Z,71.96
2024-01-31T14:08:48.412Z,71.70
2024-01-31T14:11:19.229Z,71.58
2024-01-31T14:13:47.237Z,72.16
2024-01-31T14:16:15.775Z,72.63
2024-01-31T14:18:43.148Z,72.44
2024-01-31T14:21:15.874Z,72.34
2024-01-31T14:23:45.751Z,72.90
2024-01-31T14:26:14.632Z,72.42
2024-01-31T14:28:41.666Z,70.37
2024-01-31T14:31:10.054Z,70.06
2024-01-31T14:33:37.631Z,70.62
2024-01-31T14:36:05.402Z,70.05
2024-01-31T14:38:32.964Z,70.28
2024-01-31T14:41:01.944Z,70.83
2024-01-31T14:43:29.934Z,70.75
2024-01-31T14:45:56.946Z,70.33
2024-01-31T14:48:24.039Z,70.54
2024-01-31T14:50:51.191Z,70.13
2024-01-31T14:53:18.326Z,71.51
2024-01-31T14:55:45.274Z,70.61
2024-01-31T14:58:12.329Z,71.24
2024-01-31T15:00:39.404Z,71.72
2024-01-31T15:03:07.145Z,71.23
2024-01-31T15:05:34.388Z,72.05
2024-01-31T15:08:02.034Z,71.84
2024-01-31T15:10:28.951Z,72.38
2024-01-31T15:12:56.074Z,72.75
2024-01-31T15:15:23.275Z,72.43
2024-01-31T15:17:50.532Z,72.16
2024-01-31T15:20:17.870Z,71.87
2024-01-31T15:22:46.627Z,72.75
2024-01-31T15:25:13.936Z,72.81
2024-01-31T15:27:43.577Z,73.58
2024-01-31T15:30:11.188Z,73.16
2024-01-31T15:32:38.386Z,73.98
2024-01-31T15:35:06.046Z,74.55
2024-01-31T15:37:33.123Z,74.24
2024-01-31T15:40:00.378Z,74.04
2024-01-31T15:42:27.478Z,74.31
2024-01-31T15:44:56.668Z,74.78
2024-01-31T15:47:23.670Z,75.10
2024-01-31T15:49:50.750Z,75.27
2024-01-31T15:52:19.124Z,75.45
2024-01-31T15:54:46.420Z,76.02
2024-01-31T15:57:14.261Z,75.61
2024-01-31T15:59:41.199Z,75.27
2024-01-31T16:02:08.153Z,75.71
2024-01-31T16:04:35.205Z,75.73
2024-01-31T16:07:03.902Z,76.50
2024-01-31T16:09:31.152Z,76.94
2024-01-31T16:11:58.243Z,77.58
2024-01-31T16:14:25.887Z,77.66
2024-01-31T16:16:53.132Z,78.11
2024-01-31T16:19:20.839Z,78.71
2024-01-31T16:21:49.465Z,79.12
2024-01-31T16:24:18.659Z,79.53
2024-01-31T16:26:45.880Z,79.11
2024-01-31T16:29:12.975Z,80.92
2024-01-31T16:31:42.803Z,80.56
2024-01-31T16:34:10.212Z,81.23
2024-01-31T16:36:37.453Z,81.21
2024-01-31T16:39:04.649Z,82.39
2024-01-31T16:41:31.818Z,82.59
2024-01-31T16:43:58.814Z,82.10
2024-01-31T16:46:27.145Z,81.91
2024-01-31T16:48:55.814Z,82.48
2024-01-31T16:51:23.787Z,83.59
2024-01-31T16:53:51.352Z,82.67
2024-01-31T16:56:18.994Z,83.05
2024-01-31T16:58:45.944Z,83.24
2024-01-31T17:01:12.932Z,84.14
2024-01-31T17:03:41.390Z,83.80
2024-01-31T17:06:08.825Z,83.82
2024-01-31T17:08:37.721Z,84.14
2024-01-31T17:11:12.985Z,84.56
2024-01-31T17:13:39.885Z,84.22
2024-01-31T17:16:07.082Z,84.23
2024-01-31T17:18:35.339Z,84.16
2024-01-31T17:21:03.074Z,83.99
2024-01-31T17:23:32.588Z,85.27
2024-01-31T17:25:59.561Z,84.60
2024-01-31T17:28:26.795Z,85.32
2024-01-31T17:30:53.980Z,85.35
2024-01-31T17:33:21.765Z,86.24
2024-01-31T17:35:49.087Z,86.48
2024-01-31T17:38:16.512Z,86.73
2024-01-31T17:40:49.251Z,86.68
2024-01-31T17:43:17.489Z,86.46
2024-01-31T17:45:44.408Z,87.11
2024-01-31T17:48:11.602Z,87.26
2024-01-31T17:50:38.621Z,87.57
2024-01-31T17:53:06.007Z,87.89
2024-01-31T17:55:33.000Z,87.97
2024-01-31T17:57:59.949Z,88.99
2024-01-31T18:00:26.943Z,88.52
2024-01-31T18:02:54.113Z,88.31
2024-01-31T18:05:21.544Z,88.41
2024-01-31T18:07:48.866Z,88.73
2024-01-31T18:10:15.843Z,89.15
2024-01-31T18:12:43.999Z,89.44
2024-01-31T18:15:19.084Z,89.58
2024-01-31T18:17:49.098Z,90.13
2024-01-31T18:20:17.235Z,90.18
2024-01-31T18:22:45.337Z,89.40
2024-01-31T18:25:12.397Z,89.33
2024-01-31T18:27:41.522Z,89.64
2024-01-31T18:30:09.730Z,89.89
2024-01-31T18:32:37.062Z,90.21
2024-01-31T18:35:04.644Z,91.29
2024-01-31T18:37:31.618Z,90.16
2024-01-31T18:39:58.602Z,90.11
2024-01-31T18:42:25.612Z,91.29
2024-01-31T18:44:52.846Z,91.66
2024-01-31T18:47:20.146Z,91.04
2024-01-31T18:49:47.583Z,90.51
2024-01-31T18:52:14.553Z,89.84
2024-01-31T18:54:41.495Z,90.48
2024-01-31T18:57:08.657Z,90.64
2024-01-31T18:59:36.205Z,90.04
2024-01-31T19:02:04.221Z,90.09
2024-01-31T19:04:32.641Z,89.28
2024-01-31T19:07:00.172Z,89.89
2024-01-31T19:09:28.476Z,90.57
2024-01-31T19:11:55.598Z,90.14
2024-01-31T19:14:22.791Z,90.95
2024-01-31T19:16:50.891Z,90.39
2024-01-31T19:19:18.105Z,91.27
2024-01-31T19:21:45.546Z,90.79
2024-01-31T19:24:12.689Z,90.71
2024-01-31T19:26:39.806Z,89.89
2024-01-31T19:29:07.416Z,89.67
2024-01-31T19:31:34.688Z,90.49
2024-01-31T19:34:02.951Z,90.70
2024-01-31T19:36:30.664Z,90.74
2024-01-31T19:38:57.792Z,91.29
2024-01-31T19:41:27.459Z,91.28
2024-01-31T19:43:55.426Z,91.42
2024-01-31T19:46:24.159Z,91.23
2024-01-31T19:48:51.399Z,91.05
2024-01-31T19:51:19.736Z,91.03
2024-01-31T19:53:48.469Z,91.41
2024-01-31T19:56:15.467Z,90.58
2024-01-31T19:58:42.837Z,91.58
2024-01-31T20:01:10.058Z,91.97
2024-01-31T20:03:37.192Z,91.29
2024-01-31T20:06:04.521Z,91.25
2024-01-31T20:08:34.433Z,90.98
2024-01-31T20:11:02.346Z,91.34
2024-01-31T20:13:30.931Z,92.01
2024-01-31T20:15:57.956Z,92.30
2024-01-31T20:18:25.083Z,91.62
2024-01-31T20:20:54.021Z,91.03
2024-01-31T20:23:21.714Z,89.08
2024-01-31T20:25:49.444Z,90.50
2024-01-31T20:28:17.291Z,90.28
2024-01-31T20:30:44.308Z,90.29
2024-01-31T20:33:11.654Z,91.51
2024-01-31T20:35:38.893Z,91.22
2024-01-31T20:38:06.929Z,91.13
2024-01-31T20:40:33.886Z,90.68
2024-01-31T20:43:01.082Z,91.01
2024-01-31T20:45:29.839Z,90.59
2024-01-31T20:47:56.990Z,89.91
2024-01-31T20:50:24.200Z,90.11
2024-01-31T20:52:51.251Z,90.04
2024-01-31T20:55:21.318Z,90.71
2024-01-31T20:57:48.457Z,90.74
2024-01-31T21:00:16.421Z,90.74
2024-01-31T21:02:46.142Z,90.89
2024-01-31T21:05:13.226Z,91.00
2024-01-31T21:07:40.895Z,91.74
2024-01-31T21:10:12.081Z,91.88
2024-01-31T21:12:44.586Z,91.43
2024-01-31T21:15:12.461Z,91.28
2024-01-31T21:17:39.660Z,91.32
2024-01-31T21:20:09.994Z,91.07
2024-01-31T21:22:39.849Z,91.60
2024-01-31T21:25:07.908Z,91.14
2024-01-31T21:27:36.136Z,90.94
2024-01-31T21:30:03.945Z,91.01
2024-01-31T21:32:32.986Z,90.83
2024-01-31T21:35:00.266Z,90.63
2024-01-31T21:37:28.168Z,91.04
2024-01-31T21:39:55.257Z,91.07
2024-01-31T21:42:22.816Z,90.90
2024-01-31T21:44:49.857Z,91.90
2024-01-31T21:47:16.978Z,90.64
2024-01-31T21:49:51.882Z,91.30
2024-01-31T21:52:19.021Z,91.13
2024-01-31T21:54:45.925Z,90.05
2024-01-31T21:57:14.869Z,90.54
2024-01-31T21:59:42.454Z,92.75
2024-01-31T22:02:10.593Z,92.02
2024-01-31T22:04:37.727Z,90.90
2024-01-31T22:07:05.270Z,89.13
2024-01-31T22:09:32.823Z,88.87
2024-01-31T22:12:00.517Z,90.33
2024-01-31T22:14:28.430Z,90.44
2024-01-31T22:16:56.673Z,90.72
2024-01-31T22:19:23.916Z,90.40
2024-01-31T22:21:50.967Z,90.47
2024-01-31T22:24:17.903Z,91.01
2024-01-31T22:26:45.248Z,90.97
2024-01-31T22:29:12.252Z,91.25
2024-01-31T22:31:45.051Z,88.88
2024-01-31T22:34:12.617Z,89.14
2024-01-31T22:36:39.890Z,89.01
2024-01-31T22:39:07.041Z,89.86
2024-01-31T22:41:34.030Z,90.20
2024-01-31T22:44:06.202Z,90.24
2024-01-31T22:46:34.554Z,90.48
2024-01-31T22:49:01.582Z,90.72
2024-01-31T22:51:29.526Z,90.32
2024-01-31T22:53:57.316Z,89.55
2024-01-31T22:56:24.270Z,90.04
2024-01-31T22:58:51.200Z,89.38
2024-01-31T23:01:18.373Z,89.61
2024-01-31T23:03:45.555Z,88.52
2024-01-31T23:06:16.387Z,88.26
2024-01-31T23:08:45.817Z,88.24
2024-01-31T23:11:13.002Z,88.13
2024-01-31T23:13:40.043Z,87.76
2024-01-31T23:16:07.370Z,88.02
2024-01-31T23:18:35.211Z,89.73
2024-01-31T23:21:06.604Z,90.47
2024-01-31T23:23:33.717Z,90.97
2024-01-31T23:26:00.695Z,88.58
2024-01-31T23:28:27.996Z,88.38
2024-01-31T23:30:54.968Z,88.43
2024-01-31T23:33:22.276Z,88.31
2024-01-31T23:35:49.404Z,87.91
2024-01-31T23:38:16.594Z,89.12
2024-01-31T23:40:43.848Z,88.92
2024-01-31T23:43:11.060Z,89.35
2024-01-31T23:45:38.082Z,90.56
2024-01-31T23:48:05.774Z,91.59
2024-01-31T23:50:32.832Z,92.28
2024-01-31T23:53:00.003Z,92.69
2024-01-31T23:55:27.469Z,92.83
2024-01-31T23:57:55.331Z,92.59
